Terminal Aerodrome Forecast
Issued by NWS

Home | Current Version | Previous Version | Text Only | Print | Product List | Glossary On
Versions: 1 2 3 4 5 6 7 8 9 10 11 12 13 14 15 16 17 18 19 20 21 22
000
FTUS42 KTAE 260500
TAFVLD
TAF
KVLD 260521Z 2606/2706 35007KT 6SM -RA BR SCT008 OVC012
      TEMPO 2607/2611 5SM -RA BR BKN008
     FM261100 30005KT 6SM -RA BR SCT008 BKN050
      TEMPO 2611/2613 5SM BR BKN008
     FM261400 31007KT P6SM SKC=

USA.gov is the U.S. government's official web portal to all federal, state and local government web resources and services.